sensor_id;sensor_type;location;lat;lon;timestamp;pressure;altitude;pressure_sealevel;temperature;humidity
41830;BME280;38614;43.472;23.936;2023-03-14T00:02:26;100427.94;;;1.85;100.00
41830;BME280;38614;43.472;23.936;2023-03-14T00:05:14;100443.22;;;1.86;100.00
41830;BME280;38614;43.472;23.936;2023-03-14T00:08:02;100445.41;;;1.84;100.00
41830;BME280;38614;43.472;23.936;2023-03-14T00:10:50;100438.97;;;1.75;100.00
41830;BME280;38614;43.472;23.936;2023-03-14T00:13:37;100437.31;;;1.79;100.00
41830;BME280;38614;43.472;23.936;2023-03-14T00:16:27;100431.25;;;1.63;100.00
41830;BME280;38614;43.472;23.936;2023-03-14T00:19:15;100419.88;;;1.56;100.00
41830;BME280;38614;43.472;23.936;2023-03-14T00:22:03;100395.47;;;1.27;100.00
41830;BME280;38614;43.472;23.936;2023-03-14T00:24:50;100424.56;;;1.32;100.00
41830;BME280;38614;43.472;23.936;2023-03-14T00:27:38;100397.94;;;1.05;100.00
41830;BME280;38614;43.472;23.936;2023-03-14T00:30:26;100408.91;;;1.19;100.00
41830;BME280;38614;43.472;23.936;2023-03-14T00:33:14;100402.00;;;1.02;100.00
41830;BME280;38614;43.472;23.936;2023-03-14T00:36:04;100393.84;;;1.02;100.00
41830;BME280;38614;43.472;23.936;2023-03-14T00:38:53;100399.41;;;0.92;100.00
41830;BME280;38614;43.472;23.936;2023-03-14T00:41:40;100375.84;;;0.82;100.00
41830;BME280;38614;43.472;23.936;2023-03-14T00:44:28;100391.44;;;1.01;100.00
41830;BME280;38614;43.472;23.936;2023-03-14T00:47:16;100385.28;;;0.90;100.00
41830;BME280;38614;43.472;23.936;2023-03-14T00:50:04;100377.47;;;0.83;100.00
41830;BME280;38614;43.472;23.936;2023-03-14T00:52:52;100401.06;;;0.93;100.00
41830;BME280;38614;43.472;23.936;2023-03-14T00:55:41;100399.19;;;0.89;100.00
41830;BME280;38614;43.472;23.936;2023-03-14T00:58:32;100393.16;;;0.92;100.00
41830;BME280;38614;43.472;23.936;2023-03-14T01:01:19;100383.78;;;0.79;100.00
41830;BME280;38614;43.472;23.936;2023-03-14T01:04:10;100375.72;;;0.69;100.00
41830;BME280;38614;43.472;23.936;2023-03-14T01:06:58;100351.09;;;0.55;100.00
41830;BME280;38614;43.472;23.936;2023-03-14T01:09:46;100381.47;;;0.67;100.00
41830;BME280;38614;43.472;23.936;2023-03-14T01:12:34;100371.72;;;0.61;100.00
41830;BME280;38614;43.472;23.936;2023-03-14T01:15:22;100378.75;;;0.67;100.00
41830;BME280;38614;43.472;23.936;2023-03-14T01:18:10;100366.41;;;0.46;100.00
41830;BME280;38614;43.472;23.936;2023-03-14T01:20:57;100316.28;;;-0.01;100.00
41830;BME280;38614;43.472;23.936;2023-03-14T01:23:46;100362.34;;;0.19;100.00
41830;BME280;38614;43.472;23.936;2023-03-14T01:26:34;100356.34;;;0.17;100.00
41830;BME280;38614;43.472;23.936;2023-03-14T01:29:25;100261.78;;;-0.44;100.00
41830;BME280;38614;43.472;23.936;2023-03-14T01:32:13;100338.22;;;0.08;100.00
41830;BME280;38614;43.472;23.936;2023-03-14T01:35:01;100333.41;;;-0.01;100.00
41830;BME280;38614;43.472;23.936;2023-03-14T01:37:49;100332.34;;;-0.05;100.00
41830;BME280;38614;43.472;23.936;2023-03-14T01:40:44;100324.25;;;-0.10;100.00
41830;BME280;38614;43.472;23.936;2023-03-14T01:43:33;100321.88;;;-0.16;100.00
41830;BME280;38614;43.472;23.936;2023-03-14T01:46:43;100328.47;;;-0.27;100.00
41830;BME280;38614;43.472;23.936;2023-03-14T01:49:35;100327.63;;;-0.28;100.00
41830;BME280;38614;43.472;23.936;2023-03-14T01:55:24;100332.41;;;-0.49;100.00
41830;BME280;38614;43.472;23.936;2023-03-14T01:58:13;100335.47;;;-0.66;100.00
41830;BME280;38614;43.472;23.936;2023-03-14T02:01:03;100338.81;;;-0.74;100.00
41830;BME280;38614;43.472;23.936;2023-03-14T02:03:55;100328.78;;;-0.78;100.00
41830;BME280;38614;43.472;23.936;2023-03-14T02:06:50;100299.56;;;-0.97;100.00
41830;BME280;38614;43.472;23.936;2023-03-14T02:09:43;100236.28;;;-1.36;100.00
41830;BME280;38614;43.472;23.936;2023-03-14T02:12:38;100301.44;;;-0.92;100.00
41830;BME280;38614;43.472;23.936;2023-03-14T02:15:32;100335.28;;;-0.74;100.00
41830;BME280;38614;43.472;23.936;2023-03-14T02:18:26;100307.41;;;-0.95;100.00
41830;BME280;38614;43.472;23.936;2023-03-14T02:22:11;100334.75;;;-0.81;100.00
41830;BME280;38614;43.472;23.936;2023-03-14T02:28:04;100329.38;;;-0.92;100.00
41830;BME280;38614;43.472;23.936;2023-03-14T02:30:53;100329.34;;;-0.81;100.00
41830;BME280;38614;43.472;23.936;2023-03-14T02:33:40;100334.75;;;-0.81;100.00
41830;BME280;38614;43.472;23.936;2023-03-14T02:36:29;100351.84;;;-0.81;100.00
41830;BME280;38614;43.472;23.936;2023-03-14T02:39:26;100305.50;;;-0.90;100.00
41830;BME280;38614;43.472;23.936;2023-03-14T02:42:16;100332.28;;;-0.73;100.00
41830;BME280;38614;43.472;23.936;2023-03-14T02:48:04;100272.72;;;-1.03;100.00
41830;BME280;38614;43.472;23.936;2023-03-14T02:50:57;100326.56;;;-0.76;100.00
41830;BME280;38614;43.472;23.936;2023-03-14T02:53:47;100332.56;;;-0.74;100.00
41830;BME280;38614;43.472;23.936;2023-03-14T02:56:38;100338.53;;;-0.77;100.00
41830;BME280;38614;43.472;23.936;2023-03-14T02:59:27;100339.66;;;-0.83;100.00
41830;BME280;38614;43.472;23.936;2023-03-14T03:02:18;100340.50;;;-0.93;100.00
41830;BME280;38614;43.472;23.936;2023-03-14T03:05:06;100350.75;;;-0.80;100.00
41830;BME280;38614;43.472;23.936;2023-03-14T03:07:53;100347.81;;;-0.94;100.00
41830;BME280;38614;43.472;23.936;2023-03-14T03:10:41;100358.94;;;-0.90;100.00
41830;BME280;38614;43.472;23.936;2023-03-14T03:13:29;100355.38;;;-0.86;100.00
41830;BME280;38614;43.472;23.936;2023-03-14T03:16:18;100349.16;;;-0.86;100.00
41830;BME280;38614;43.472;23.936;2023-03-14T03:19:06;100345.09;;;-0.94;100.00
41830;BME280;38614;43.472;23.936;2023-03-14T03:21:53;100342.19;;;-1.02;100.00
41830;BME280;38614;43.472;23.936;2023-03-14T03:24:48;100330.78;;;-1.04;100.00
41830;BME280;38614;43.472;23.936;2023-03-14T03:27:37;100340.81;;;-1.05;100.00
41830;BME280;38614;43.472;23.936;2023-03-14T03:30:25;100341.34;;;-0.98;100.00
41830;BME280;38614;43.472;23.936;2023-03-14T03:33:13;100351.63;;;-0.90;100.00
41830;BME280;38614;43.472;23.936;2023-03-14T03:36:04;100336.97;;;-0.94;100.00
41830;BME280;38614;43.472;23.936;2023-03-14T03:38:55;100344.25;;;-0.84;100.00
41830;BME280;38614;43.472;23.936;2023-03-14T03:41:44;100294.19;;;-1.07;100.00
41830;BME280;38614;43.472;23.936;2023-03-14T03:44:32;100297.41;;;-1.05;100.00
41830;BME280;38614;43.472;23.936;2023-03-14T03:47:20;100317.16;;;-0.89;100.00
41830;BME280;38614;43.472;23.936;2023-03-14T03:50:08;100292.81;;;-1.04;100.00
41830;BME280;38614;43.472;23.936;2023-03-14T03:52:57;100308.78;;;-0.98;100.00
41830;BME280;38614;43.472;23.936;2023-03-14T03:55:45;100325.34;;;-1.04;100.00
41830;BME280;38614;43.472;23.936;2023-03-14T03:58:33;100329.72;;;-1.08;100.00
41830;BME280;38614;43.472;23.936;2023-03-14T04:01:22;100326.47;;;-1.10;100.00
41830;BME280;38614;43.472;23.936;2023-03-14T04:04:13;100289.66;;;-1.32;100.00
41830;BME280;38614;43.472;23.936;2023-03-14T04:07:04;100327.84;;;-1.18;100.00
41830;BME280;38614;43.472;23.936;2023-03-14T04:09:52;100326.78;;;-1.22;100.00
41830;BME280;38614;43.472;23.936;2023-03-14T04:13:02;100331.66;;;-1.19;100.00
41830;BME280;38614;43.472;23.936;2023-03-14T04:15:53;100316.25;;;-1.34;100.00
41830;BME280;38614;43.472;23.936;2023-03-14T04:18:44;100329.81;;;-1.29;100.00
41830;BME280;38614;43.472;23.936;2023-03-14T04:21:32;100317.34;;;-1.35;100.00
41830;BME280;38614;43.472;23.936;2023-03-14T04:24:20;100316.53;;;-1.30;100.00
41830;BME280;38614;43.472;23.936;2023-03-14T04:27:09;100279.63;;;-1.26;100.00
41830;BME280;38614;43.472;23.936;2023-03-14T04:29:57;100312.97;;;-1.26;100.00
41830;BME280;38614;43.472;23.936;2023-03-14T04:33:04;100301.06;;;-1.35;100.00
41830;BME280;38614;43.472;23.936;2023-03-14T04:35:55;100299.72;;;-1.37;100.00
41830;BME280;38614;43.472;23.936;2023-03-14T04:38:44;100282.59;;;-1.23;100.00
41830;BME280;38614;43.472;23.936;2023-03-14T04:41:49;100177.97;;;-1.93;100.00
41830;BME280;38614;43.472;23.936;2023-03-14T04:49:55;100211.50;;;-1.74;100.00
41830;BME280;38614;43.472;23.936;2023-03-14T04:52:44;100297.69;;;-1.01;100.00
41830;BME280;38614;43.472;23.936;2023-03-14T04:55:32;100303.41;;;-1.08;100.00
41830;BME280;38614;43.472;23.936;2023-03-14T04:58:22;100306.66;;;-1.01;100.00
41830;BME280;38614;43.472;23.936;2023-03-14T05:01:12;100300.38;;;-0.96;100.00
41830;BME280;38614;43.472;23.936;2023-03-14T05:04:07;100306.06;;;-0.93;100.00
41830;BME280;38614;43.472;23.936;2023-03-14T05:07:10;100299.44;;;-0.76;100.00
41830;BME280;38614;43.472;23.936;2023-03-14T05:10:14;100301.63;;;-0.73;100.00
41830;BME280;38614;43.472;23.936;2023-03-14T05:13:27;100301.63;;;-0.73;100.00
41830;BME280;38614;43.472;23.936;2023-03-14T05:16:38;100271.00;;;-0.84;100.00
41830;BME280;38614;43.472;23.936;2023-03-14T05:19:36;100310.44;;;-0.52;100.00
41830;BME280;38614;43.472;23.936;2023-03-14T05:22:44;100294.44;;;-0.54;100.00
41830;BME280;38614;43.472;23.936;2023-03-14T05:25:52;100298.69;;;-0.43;100.00
41830;BME280;38614;43.472;23.936;2023-03-14T05:29:00;100279.63;;;-0.33;100.00
41830;BME280;38614;43.472;23.936;2023-03-14T05:31:58;100282.97;;;-0.12;100.00
41830;BME280;38614;43.472;23.936;2023-03-14T05:35:05;100288.75;;;0.88;100.00
41830;BME280;38614;43.472;23.936;2023-03-14T05:38:15;100279.72;;;2.60;100.00
41830;BME280;38614;43.472;23.936;2023-03-14T05:41:25;100273.31;;;3.78;100.00
41830;BME280;38614;43.472;23.936;2023-03-14T05:44:39;100269.56;;;4.50;100.00
41830;BME280;38614;43.472;23.936;2023-03-14T05:47:33;100255.72;;;4.55;100.00
41830;BME280;38614;43.472;23.936;2023-03-14T05:50:56;100278.75;;;4.54;100.00
41830;BME280;38614;43.472;23.936;2023-03-14T05:53:57;100285.31;;;4.93;100.00
41830;BME280;38614;43.472;23.936;2023-03-14T05:57:17;100284.44;;;4.66;100.00
41830;BME280;38614;43.472;23.936;2023-03-14T06:00:24;100281.03;;;5.09;100.00
41830;BME280;38614;43.472;23.936;2023-03-14T06:03:32;100269.81;;;5.54;100.00
41830;BME280;38614;43.472;23.936;2023-03-14T06:06:20;100296.09;;;5.63;100.00
41830;BME280;38614;43.472;23.936;2023-03-14T06:09:11;100264.97;;;5.94;100.00
41830;BME280;38614;43.472;23.936;2023-03-14T06:12:01;100286.88;;;6.20;100.00
41830;BME280;38614;43.472;23.936;2023-03-14T06:14:55;100289.66;;;6.58;100.00
41830;BME280;38614;43.472;23.936;2023-03-14T06:17:43;100288.63;;;6.33;100.00
41830;BME280;38614;43.472;23.936;2023-03-14T06:20:32;100290.94;;;5.70;100.00
41830;BME280;38614;43.472;23.936;2023-03-14T06:23:23;100290.50;;;6.50;100.00
41830;BME280;38614;43.472;23.936;2023-03-14T06:26:11;100280.00;;;7.40;100.00
41830;BME280;38614;43.472;23.936;2023-03-14T06:28:59;100283.84;;;7.48;100.00
41830;BME280;38614;43.472;23.936;2023-03-14T06:31:52;100289.41;;;6.80;100.00
41830;BME280;38614;43.472;23.936;2023-03-14T06:34:40;100281.34;;;7.05;100.00
41830;BME280;38614;43.472;23.936;2023-03-14T06:37:28;100273.88;;;7.35;100.00
41830;BME280;38614;43.472;23.936;2023-03-14T06:40:17;100285.88;;;6.80;100.00
41830;BME280;38614;43.472;23.936;2023-03-14T06:43:25;100277.91;;;7.17;100.00
41830;BME280;38614;43.472;23.936;2023-03-14T06:46:14;100291.28;;;7.48;100.00
41830;BME280;38614;43.472;23.936;2023-03-14T06:49:05;100271.34;;;7.09;100.00
41830;BME280;38614;43.472;23.936;2023-03-14T06:51:53;100284.69;;;7.19;100.00
41830;BME280;38614;43.472;23.936;2023-03-14T06:54:41;100289.25;;;7.78;100.00
41830;BME280;38614;43.472;23.936;2023-03-14T06:57:29;100275.69;;;6.42;100.00
41830;BME280;38614;43.472;23.936;2023-03-14T07:00:17;100280.75;;;6.14;100.00
41830;BME280;38614;43.472;23.936;2023-03-14T07:03:05;100274.38;;;6.78;100.00
41830;BME280;38614;43.472;23.936;2023-03-14T07:05:57;100273.75;;;6.81;100.00
41830;BME280;38614;43.472;23.936;2023-03-14T07:08:48;100266.97;;;7.08;100.00
41830;BME280;38614;43.472;23.936;2023-03-14T07:11:37;100259.28;;;7.43;100.00
41830;BME280;38614;43.472;23.936;2023-03-14T07:14:25;100256.38;;;7.60;100.00
41830;BME280;38614;43.472;23.936;2023-03-14T07:17:13;100246.84;;;8.57;100.00
41830;BME280;38614;43.472;23.936;2023-03-14T07:20:01;100247.56;;;8.66;100.00
41830;BME280;38614;43.472;23.936;2023-03-14T07:22:54;100231.00;;;8.78;100.00
41830;BME280;38614;43.472;23.936;2023-03-14T07:25:54;100254.41;;;8.48;100.00
41830;BME280;38614;43.472;23.936;2023-03-14T07:28:45;100216.28;;;8.99;100.00
41830;BME280;38614;43.472;23.936;2023-03-14T07:31:36;100242.91;;;8.46;100.00
41830;BME280;38614;43.472;23.936;2023-03-14T07:34:26;100247.75;;;9.22;100.00
41830;BME280;38614;43.472;23.936;2023-03-14T07:37:16;100235.00;;;9.58;100.00
41830;BME280;38614;43.472;23.936;2023-03-14T07:40:05;100231.75;;;9.40;100.00
41830;BME280;38614;43.472;23.936;2023-03-14T07:42:56;100225.69;;;9.62;100.00
41830;BME280;38614;43.472;23.936;2023-03-14T07:46:00;100228.38;;;9.75;100.00
41830;BME280;38614;43.472;23.936;2023-03-14T07:48:48;100223.94;;;10.14;100.00
41830;BME280;38614;43.472;23.936;2023-03-14T07:51:36;100208.94;;;10.43;100.00
41830;BME280;38614;43.472;23.936;2023-03-14T07:54:26;100216.63;;;10.21;100.00
41830;BME280;38614;43.472;23.936;2023-03-14T07:57:14;100205.81;;;10.44;100.00
41830;BME280;38614;43.472;23.936;2023-03-14T08:00:05;100208.25;;;9.74;100.00
41830;BME280;38614;43.472;23.936;2023-03-14T08:02:59;100195.09;;;10.74;100.00
41830;BME280;38614;43.472;23.936;2023-03-14T08:05:47;100205.16;;;10.98;98.32
41830;BME280;38614;43.472;23.936;2023-03-14T08:08:35;100211.56;;;10.87;96.57
41830;BME280;38614;43.472;23.936;2023-03-14T08:11:23;100184.34;;;10.89;100.00
41830;BME280;38614;43.472;23.936;2023-03-14T08:14:10;100200.66;;;11.09;100.00
41830;BME280;38614;43.472;23.936;2023-03-14T08:16:58;100164.91;;;11.01;100.00
41830;BME280;38614;43.472;23.936;2023-03-14T08:19:46;100203.38;;;12.03;100.00
41830;BME280;38614;43.472;23.936;2023-03-14T08:22:34;100200.78;;;12.36;100.00
41830;BME280;38614;43.472;23.936;2023-03-14T08:25:22;100173.38;;;13.07;100.00
41830;BME280;38614;43.472;23.936;2023-03-14T08:28:10;100201.88;;;13.60;98.02
41830;BME280;38614;43.472;23.936;2023-03-14T08:30:57;100197.09;;;13.94;96.04
41830;BME280;38614;43.472;23.936;2023-03-14T08:33:45;100188.81;;;13.31;90.87
41830;BME280;38614;43.472;23.936;2023-03-14T08:36:33;100184.75;;;12.98;95.54
41830;BME280;38614;43.472;23.936;2023-03-14T08:39:21;100177.69;;;13.61;94.21
41830;BME280;38614;43.472;23.936;2023-03-14T08:42:09;100153.03;;;13.22;90.38
41830;BME280;38614;43.472;23.936;2023-03-14T08:44:56;100149.75;;;12.14;95.61
41830;BME280;38614;43.472;23.936;2023-03-14T08:47:44;100172.34;;;13.19;95.28
41830;BME280;38614;43.472;23.936;2023-03-14T08:50:33;100155.44;;;12.71;92.37
41830;BME280;38614;43.472;23.936;2023-03-14T08:53:21;100159.50;;;13.33;93.51
41830;BME280;38614;43.472;23.936;2023-03-14T08:56:09;100151.00;;;13.53;92.64
41830;BME280;38614;43.472;23.936;2023-03-14T08:58:57;100152.19;;;13.89;91.74
41830;BME280;38614;43.472;23.936;2023-03-14T09:01:45;100142.56;;;14.68;92.55
41830;BME280;38614;43.472;23.936;2023-03-14T09:04:33;100137.50;;;13.88;89.70
41830;BME280;38614;43.472;23.936;2023-03-14T09:07:20;100133.59;;;14.41;87.36
41830;BME280;38614;43.472;23.936;2023-03-14T09:10:09;100144.00;;;15.02;93.28
41830;BME280;38614;43.472;23.936;2023-03-14T09:12:57;100107.19;;;15.41;84.26
41830;BME280;38614;43.472;23.936;2023-03-14T09:15:50;100125.59;;;15.81;87.19
41830;BME280;38614;43.472;23.936;2023-03-14T09:18:38;100104.50;;;15.80;81.96
41830;BME280;38614;43.472;23.936;2023-03-14T09:21:27;100092.94;;;15.60;79.64
41830;BME280;38614;43.472;23.936;2023-03-14T09:24:15;100098.41;;;15.39;77.64
41830;BME280;38614;43.472;23.936;2023-03-14T09:27:05;100086.63;;;15.74;84.33
41830;BME280;38614;43.472;23.936;2023-03-14T09:29:55;100081.03;;;15.74;76.02
41830;BME280;38614;43.472;23.936;2023-03-14T09:32:43;100076.53;;;15.41;73.38
41830;BME280;38614;43.472;23.936;2023-03-14T09:35:33;100042.81;;;16.32;75.19
41830;BME280;38614;43.472;23.936;2023-03-14T09:38:22;100060.34;;;16.29;72.09
41830;BME280;38614;43.472;23.936;2023-03-14T09:41:40;100058.75;;;16.35;72.92
41830;BME280;38614;43.472;23.936;2023-03-14T09:44:31;100051.97;;;15.89;69.18
41830;BME280;38614;43.472;23.936;2023-03-14T09:47:20;100039.22;;;16.28;70.41
41830;BME280;38614;43.472;23.936;2023-03-14T09:50:17;100031.22;;;16.58;67.79
41830;BME280;38614;43.472;23.936;2023-03-14T09:53:10;100025.56;;;16.94;63.61
41830;BME280;38614;43.472;23.936;2023-03-14T09:55:59;100012.84;;;16.64;62.36
41830;BME280;38614;43.472;23.936;2023-03-14T09:58:58;100014.78;;;16.89;63.32
41830;BME280;38614;43.472;23.936;2023-03-14T10:01:47;99987.38;;;16.55;64.47
41830;BME280;38614;43.472;23.936;2023-03-14T10:04:35;99998.56;;;16.44;62.60
41830;BME280;38614;43.472;23.936;2023-03-14T10:07:33;99991.47;;;16.08;61.31
41830;BME280;38614;43.472;23.936;2023-03-14T10:10:24;99982.16;;;16.75;63.16
41830;BME280;38614;43.472;23.936;2023-03-14T10:13:24;99980.44;;;16.99;64.79
41830;BME280;38614;43.472;23.936;2023-03-14T10:16:15;99973.56;;;17.18;62.49
41830;BME280;38614;43.472;23.936;2023-03-14T10:19:14;99962.88;;;17.02;63.19
41830;BME280;38614;43.472;23.936;2023-03-14T10:22:30;99973.13;;;17.82;62.92
41830;BME280;38614;43.472;23.936;2023-03-14T10:25:27;99966.81;;;17.12;58.75
41830;BME280;38614;43.472;23.936;2023-03-14T10:28:30;99957.81;;;16.83;60.93
41830;BME280;38614;43.472;23.936;2023-03-14T10:31:18;99954.84;;;17.15;58.35
41830;BME280;38614;43.472;23.936;2023-03-14T10:34:16;99944.50;;;17.08;57.77
41830;BME280;38614;43.472;23.936;2023-03-14T10:37:26;99931.09;;;17.44;56.67
41830;BME280;38614;43.472;23.936;2023-03-14T10:40:14;99908.13;;;17.22;56.48
41830;BME280;38614;43.472;23.936;2023-03-14T10:43:13;99921.03;;;18.02;55.34
41830;BME280;38614;43.472;23.936;2023-03-14T10:46:12;99910.22;;;18.04;56.11
41830;BME280;38614;43.472;23.936;2023-03-14T10:49:38;99893.34;;;18.15;53.02
41830;BME280;38614;43.472;23.936;2023-03-14T10:52:47;99886.56;;;17.75;55.01
41830;BME280;38614;43.472;23.936;2023-03-14T10:55:55;99870.25;;;18.07;54.13
41830;BME280;38614;43.472;23.936;2023-03-14T10:58:46;99882.78;;;18.30;53.03
41830;BME280;38614;43.472;23.936;2023-03-14T11:07:43;99859.47;;;17.64;53.64
41830;BME280;38614;43.472;23.936;2023-03-14T11:10:39;99846.00;;;17.56;55.02
41830;BME280;38614;43.472;23.936;2023-03-14T11:25:56;99785.59;;;18.07;52.75
41830;BME280;38614;43.472;23.936;2023-03-14T11:28:52;99787.31;;;18.28;53.34
41830;BME280;38614;43.472;23.936;2023-03-14T11:31:45;99774.53;;;18.27;54.20
41830;BME280;38614;43.472;23.936;2023-03-14T11:34:44;99750.41;;;18.09;52.52
41830;BME280;38614;43.472;23.936;2023-03-14T11:37:46;99756.34;;;18.69;56.10
41830;BME280;38614;43.472;23.936;2023-03-14T11:40:38;99751.41;;;18.22;52.19
41830;BME280;38614;43.472;23.936;2023-03-14T11:43:33;99752.28;;;18.46;56.53
41830;BME280;38614;43.472;23.936;2023-03-14T11:47:24;99745.94;;;18.15;55.41
41830;BME280;38614;43.472;23.936;2023-03-14T11:50:04;99749.47;;;18.19;52.89
41830;BME280;38614;43.472;23.936;2023-03-14T11:55:52;99728.56;;;18.28;51.86
41830;BME280;38614;43.472;23.936;2023-03-14T11:58:51;99709.69;;;18.62;52.03
41830;BME280;38614;43.472;23.936;2023-03-14T12:01:52;99724.84;;;18.65;51.70
41830;BME280;38614;43.472;23.936;2023-03-14T12:11:02;99706.91;;;18.59;47.64
41830;BME280;38614;43.472;23.936;2023-03-14T12:13:52;99686.03;;;18.90;48.44
41830;BME280;38614;43.472;23.936;2023-03-14T12:16:40;99689.78;;;19.27;50.73
41830;BME280;38614;43.472;23.936;2023-03-14T12:19:35;99685.06;;;18.77;46.88
41830;BME280;38614;43.472;23.936;2023-03-14T12:22:35;99638.66;;;18.29;49.27
41830;BME280;38614;43.472;23.936;2023-03-14T12:25:32;99674.47;;;18.65;48.70
41830;BME280;38614;43.472;23.936;2023-03-14T12:28:31;99675.31;;;18.85;49.71
41830;BME280;38614;43.472;23.936;2023-03-14T12:37:28;99658.56;;;18.08;49.36
41830;BME280;38614;43.472;23.936;2023-03-14T12:40:29;99643.38;;;18.32;50.64
41830;BME280;38614;43.472;23.936;2023-03-14T12:43:27;99649.84;;;18.02;49.57
41830;BME280;38614;43.472;23.936;2023-03-14T12:46:27;99633.81;;;17.79;50.33
41830;BME280;38614;43.472;23.936;2023-03-14T12:49:15;99634.16;;;17.81;50.96
41830;BME280;38614;43.472;23.936;2023-03-14T12:52:16;99607.09;;;17.75;49.58
41830;BME280;38614;43.472;23.936;2023-03-14T12:58:32;99620.63;;;17.80;50.60
41830;BME280;38614;43.472;23.936;2023-03-14T13:01:22;99614.00;;;17.97;49.99
41830;BME280;38614;43.472;23.936;2023-03-14T13:04:11;99582.91;;;17.91;48.99
41830;BME280;38614;43.472;23.936;2023-03-14T13:07:02;99600.78;;;18.25;49.58
41830;BME280;38614;43.472;23.936;2023-03-14T13:09:53;99572.13;;;18.17;49.68
41830;BME280;38614;43.472;23.936;2023-03-14T13:12:54;99586.22;;;18.10;50.13
41830;BME280;38614;43.472;23.936;2023-03-14T13:15:45;99574.63;;;17.84;50.12
41830;BME280;38614;43.472;23.936;2023-03-14T13:18:38;99576.97;;;18.13;49.72
41830;BME280;38614;43.472;23.936;2023-03-14T13:21:34;99558.03;;;18.24;51.13
41830;BME280;38614;43.472;23.936;2023-03-14T13:24:25;99556.06;;;18.21;50.97
41830;BME280;38614;43.472;23.936;2023-03-14T13:27:20;99545.88;;;17.84;49.88
41830;BME280;38614;43.472;23.936;2023-03-14T13:30:18;99538.41;;;17.77;51.54
41830;BME280;38614;43.472;23.936;2023-03-14T13:33:16;99542.03;;;17.74;51.25
41830;BME280;38614;43.472;23.936;2023-03-14T13:36:05;99512.03;;;17.51;51.63
41830;BME280;38614;43.472;23.936;2023-03-14T13:38:58;99489.81;;;17.14;50.73
41830;BME280;38614;43.472;23.936;2023-03-14T13:41:46;99525.44;;;17.02;52.36
41830;BME280;38614;43.472;23.936;2023-03-14T13:44:40;99526.44;;;17.19;52.24
41830;BME280;38614;43.472;23.936;2023-03-14T13:47:28;99521.41;;;17.07;50.71
41830;BME280;38614;43.472;23.936;2023-03-14T13:50:17;99504.28;;;17.05;50.67
41830;BME280;38614;43.472;23.936;2023-03-14T13:53:11;99510.19;;;17.10;51.66
41830;BME280;38614;43.472;23.936;2023-03-14T13:56:02;99498.44;;;16.96;52.04
41830;BME280;38614;43.472;23.936;2023-03-14T13:58:51;99472.31;;;16.79;52.97
41830;BME280;38614;43.472;23.936;2023-03-14T14:01:47;99483.28;;;16.93;52.94
41830;BME280;38614;43.472;23.936;2023-03-14T14:04:36;99456.81;;;16.74;53.95
41830;BME280;38614;43.472;23.936;2023-03-14T14:07:24;99474.28;;;16.82;51.82
41830;BME280;38614;43.472;23.936;2023-03-14T14:10:13;99464.25;;;16.88;52.07
41830;BME280;38614;43.472;23.936;2023-03-14T14:13:03;99472.88;;;16.63;52.33
41830;BME280;38614;43.472;23.936;2023-03-14T14:15:52;99458.13;;;16.63;52.17
41830;BME280;38614;43.472;23.936;2023-03-14T14:18:41;99449.56;;;16.80;53.31
41830;BME280;38614;43.472;23.936;2023-03-14T14:21:29;99427.81;;;16.68;52.82
41830;BME280;38614;43.472;23.936;2023-03-14T14:24:21;99409.09;;;16.65;52.08
41830;BME280;38614;43.472;23.936;2023-03-14T14:27:14;99436.50;;;16.74;52.93
41830;BME280;38614;43.472;23.936;2023-03-14T14:30:21;99417.22;;;16.52;53.64
41830;BME280;38614;43.472;23.936;2023-03-14T14:33:21;99423.88;;;16.62;52.51
41830;BME280;38614;43.472;23.936;2023-03-14T14:36:19;99416.34;;;16.59;52.39
41830;BME280;38614;43.472;23.936;2023-03-14T14:39:20;99414.00;;;16.54;52.28
41830;BME280;38614;43.472;23.936;2023-03-14T14:42:16;99403.78;;;16.44;51.99
41830;BME280;38614;43.472;23.936;2023-03-14T14:45:09;99394.00;;;16.29;52.52
41830;BME280;38614;43.472;23.936;2023-03-14T14:48:09;99394.47;;;16.23;53.70
41830;BME280;38614;43.472;23.936;2023-03-14T14:51:03;99396.09;;;16.21;52.41
41830;BME280;38614;43.472;23.936;2023-03-14T14:54:18;99395.91;;;16.01;52.65
41830;BME280;38614;43.472;23.936;2023-03-14T14:57:17;99391.22;;;15.91;53.12
41830;BME280;38614;43.472;23.936;2023-03-14T15:00:08;99350.44;;;15.70;53.79
41830;BME280;38614;43.472;23.936;2023-03-14T15:02:59;99381.78;;;15.78;52.60
41830;BME280;38614;43.472;23.936;2023-03-14T15:05:48;99374.28;;;15.75;53.25
41830;BME280;38614;43.472;23.936;2023-03-14T15:08:37;99297.91;;;15.27;52.74
41830;BME280;38614;43.472;23.936;2023-03-14T15:11:26;99349.34;;;15.60;53.84
41830;BME280;38614;43.472;23.936;2023-03-14T15:14:14;99373.97;;;15.62;52.52
41830;BME280;38614;43.472;23.936;2023-03-14T15:17:02;99354.94;;;15.53;53.40
41830;BME280;38614;43.472;23.936;2023-03-14T15:19:50;99305.53;;;15.20;52.54
41830;BME280;38614;43.472;23.936;2023-03-14T15:22:37;99341.56;;;15.34;53.90
41830;BME280;38614;43.472;23.936;2023-03-14T15:25:25;99343.09;;;15.42;52.49
41830;BME280;38614;43.472;23.936;2023-03-14T15:28:34;99306.88;;;15.01;53.60
41830;BME280;38614;43.472;23.936;2023-03-14T15:31:22;99326.69;;;15.06;53.56
41830;BME280;38614;43.472;23.936;2023-03-14T15:34:10;99324.81;;;14.93;54.89
41830;BME280;38614;43.472;23.936;2023-03-14T15:36:57;99307.13;;;14.65;53.19
41830;BME280;38614;43.472;23.936;2023-03-14T15:39:45;99328.94;;;14.67;54.42
41830;BME280;38614;43.472;23.936;2023-03-14T15:42:33;99332.56;;;14.60;54.30
41830;BME280;38614;43.472;23.936;2023-03-14T15:45:21;99336.97;;;14.50;55.01